createdAt,value
2017-07-20T00:00:35.271Z,23.30
2017-07-20T00:03:03.339Z,23.30
2017-07-20T00:05:31.407Z,23.30
2017-07-20T00:07:59.507Z,23.30
2017-07-20T00:10:27.564Z,23.30
2017-07-20T00:12:55.643Z,23.30
2017-07-20T00:15:23.719Z,23.30
2017-07-20T00:17:51.794Z,23.30
2017-07-20T00:20:19.881Z,23.30
2017-07-20T00:22:48.713Z,23.40
2017-07-20T00:25:16.852Z,23.30
2017-07-20T00:27:45.658Z,23.40
2017-07-20T00:30:13.731Z,23.40
2017-07-20T00:32:41.794Z,23.40
2017-07-20T00:35:10.619Z,23.40
2017-07-20T00:37:38.692Z,23.30
2017-07-20T00:40:06.751Z,23.30
2017-07-20T00:42:34.837Z,23.30
2017-07-20T00:45:03.836Z,23.30
2017-07-20T00:47:31.889Z,23.30
2017-07-20T00:49:59.956Z,23.20
2017-07-20T00:52:28.046Z,23.20
2017-07-20T00:54:56.119Z,23.20
2017-07-20T00:57:24.170Z,23.20
2017-07-20T00:59:52.295Z,23.20
2017-07-20T01:02:20.361Z,23.10
2017-07-20T01:04:48.426Z,23.10
2017-07-20T01:07:16.499Z,23.10
2017-07-20T01:09:44.594Z,23.10
2017-07-20T01:12:13.447Z,23.10
2017-07-20T01:14:41.537Z,23.10
2017-07-20T01:17:09.603Z,23.10
2017-07-20T01:19:37.652Z,22.90
2017-07-20T01:22:05.719Z,22.80
2017-07-20T01:24:33.793Z,22.70
2017-07-20T01:27:01.887Z,22.70
2017-07-20T01:29:29.910Z,22.80
2017-07-20T01:31:57.982Z,22.90
2017-07-20T01:34:26.047Z,22.90
2017-07-20T01:39:28.495Z,23.10
2017-07-20T01:41:56.552Z,23.10
2017-07-20T01:44:24.651Z,23.10
2017-07-20T01:46:52.719Z,23.20
2017-07-20T01:49:20.782Z,23.20
2017-07-20T01:51:48.853Z,23.20
2017-07-20T01:54:16.937Z,23.30
2017-07-20T01:56:45.022Z,23.30
2017-07-20T01:59:13.090Z,23.30
2017-07-20T02:01:41.143Z,23.30
2017-07-20T02:04:09.236Z,23.20
2017-07-20T02:06:37.294Z,23.20
2017-07-20T02:09:05.367Z,23.20
2017-07-20T02:11:33.446Z,23.20
2017-07-20T02:14:01.508Z,23.30
2017-07-20T02:16:29.595Z,23.30
2017-07-20T02:18:57.659Z,23.30
2017-07-20T02:21:25.723Z,23.30
2017-07-20T02:23:53.794Z,23.30
2017-07-20T02:26:21.878Z,23.30
2017-07-20T02:28:49.962Z,23.20
2017-07-20T02:31:18.046Z,23.10
2017-07-20T02:33:46.149Z,23.00
2017-07-20T02:36:14.219Z,22.80
2017-07-20T02:38:42.377Z,22.80
2017-07-20T02:41:11.170Z,22.60
2017-07-20T02:43:39.252Z,22.50
2017-07-20T02:46:07.326Z,22.60
2017-07-20T02:48:35.412Z,22.40
2017-07-20T02:51:03.474Z,22.20
2017-07-20T02:53:31.534Z,22.20
2017-07-20T02:55:59.619Z,22.30
2017-07-20T02:58:27.690Z,22.40
2017-07-20T03:00:55.758Z,22.40
2017-07-20T03:03:23.835Z,22.30
2017-07-20T03:05:51.920Z,22.30
2017-07-20T03:08:20.175Z,22.40
2017-07-20T03:10:48.247Z,22.40
2017-07-20T03:13:16.347Z,22.40
2017-07-20T03:15:44.424Z,22.30
2017-07-20T03:18:12.515Z,22.30
2017-07-20T03:20:41.356Z,22.10
2017-07-20T03:23:09.415Z,22.10
2017-07-20T03:25:37.497Z,22.00
2017-07-20T03:28:05.555Z,22.00
2017-07-20T03:30:33.627Z,21.90
2017-07-20T03:33:01.696Z,21.90
2017-07-20T03:35:29.770Z,21.80
2017-07-20T03:37:57.846Z,21.80
2017-07-20T03:40:25.911Z,21.80
2017-07-20T03:42:53.976Z,21.80
2017-07-20T03:45:22.050Z,21.80
2017-07-20T03:47:50.113Z,21.70
2017-07-20T03:50:18.196Z,21.60
2017-07-20T03:52:46.258Z,21.50
2017-07-20T03:55:14.316Z,21.50
2017-07-20T03:57:42.410Z,21.40
2017-07-20T04:00:10.477Z,21.40
2017-07-20T04:02:38.546Z,21.50
2017-07-20T04:05:06.625Z,21.50
2017-07-20T04:07:34.682Z,21.40
2017-07-20T04:10:02.954Z,21.40
2017-07-20T04:12:31.030Z,21.50
2017-07-20T04:14:59.102Z,21.50
2017-07-20T04:17:27.190Z,21.60
2017-07-20T04:19:55.254Z,21.70
2017-07-20T04:22:23.356Z,21.80
2017-07-20T04:24:51.421Z,21.90
2017-07-20T04:27:19.506Z,22.00
2017-07-20T04:29:48.335Z,22.20
2017-07-20T04:32:16.417Z,22.10
2017-07-20T04:34:44.499Z,22.10
2017-07-20T04:37:12.564Z,22.00
2017-07-20T04:39:40.642Z,21.80
2017-07-20T04:42:08.722Z,21.50
2017-07-20T04:44:36.787Z,21.10
2017-07-20T04:47:04.879Z,20.80
2017-07-20T04:49:32.967Z,20.80
2017-07-20T04:52:01.031Z,20.90
2017-07-20T04:54:29.106Z,20.90
2017-07-20T04:56:57.180Z,20.80
2017-07-20T04:59:25.255Z,20.80
2017-07-20T05:01:53.340Z,20.70
2017-07-20T05:04:22.207Z,20.60
2017-07-20T05:06:50.254Z,20.50
2017-07-20T05:09:18.350Z,20.60
2017-07-20T05:11:46.419Z,20.50
2017-07-20T05:14:14.490Z,20.60
2017-07-20T05:16:42.567Z,20.50
2017-07-20T05:19:10.635Z,20.40
2017-07-20T05:21:38.713Z,20.40
2017-07-20T05:24:06.788Z,20.40
2017-07-20T05:26:34.844Z,20.40
2017-07-20T05:29:03.226Z,20.40
2017-07-20T05:31:31.306Z,20.50
2017-07-20T05:33:59.399Z,20.50
2017-07-20T05:36:27.463Z,20.60
2017-07-20T05:38:55.539Z,20.60
2017-07-20T05:41:23.609Z,20.70
2017-07-20T05:43:51.686Z,20.70
2017-07-20T05:46:20.518Z,20.80
2017-07-20T05:48:48.586Z,20.80
2017-07-20T05:51:16.678Z,20.80
2017-07-20T05:53:45.061Z,20.90
2017-07-20T05:56:13.114Z,20.90
2017-07-20T05:58:41.174Z,20.90
2017-07-20T06:01:09.263Z,20.90
2017-07-20T06:03:37.417Z,20.90
2017-07-20T06:06:06.226Z,21.00
2017-07-20T06:08:34.297Z,21.00
2017-07-20T06:11:02.380Z,21.00
2017-07-20T06:13:30.474Z,21.00
2017-07-20T06:15:58.537Z,21.00
2017-07-20T06:18:26.611Z,21.00
2017-07-20T06:20:54.686Z,21.20
2017-07-20T06:23:22.755Z,21.30
2017-07-20T06:25:50.814Z,21.40
2017-07-20T06:28:19.096Z,21.60
2017-07-20T06:30:47.154Z,21.80
2017-07-20T06:33:15.230Z,22.00
2017-07-20T06:35:43.692Z,22.20
2017-07-20T06:38:12.519Z,22.40
2017-07-20T06:40:40.567Z,22.40
2017-07-20T06:43:08.628Z,22.50
2017-07-20T06:45:36.720Z,22.60
2017-07-20T06:48:04.810Z,22.70
2017-07-20T06:50:32.886Z,22.80
2017-07-20T06:53:01.743Z,22.90
2017-07-20T06:55:29.810Z,22.80
2017-07-20T06:57:57.900Z,22.80
2017-07-20T07:00:25.958Z,22.90
2017-07-20T07:02:54.031Z,23.10
2017-07-20T07:05:22.128Z,23.00
2017-07-20T07:07:50.171Z,22.90
2017-07-20T07:10:18.237Z,22.80
2017-07-20T07:12:46.298Z,23.00
2017-07-20T07:15:14.364Z,23.10
2017-07-20T07:17:42.429Z,23.10
2017-07-20T07:20:10.502Z,23.20
2017-07-20T07:22:38.578Z,23.30
2017-07-20T07:25:06.647Z,23.30
2017-07-20T07:27:34.695Z,23.40
2017-07-20T07:30:02.767Z,23.40
2017-07-20T07:32:31.590Z,23.20
2017-07-20T07:34:59.646Z,23.20
2017-07-20T07:37:28.466Z,23.20
2017-07-20T07:39:56.663Z,23.20
2017-07-20T07:42:24.714Z,23.00
2017-07-20T07:44:52.787Z,22.90
2017-07-20T07:47:20.863Z,22.80
2017-07-20T07:49:48.923Z,22.70
2017-07-20T07:52:17.005Z,22.60
2017-07-20T07:54:45.119Z,22.60
2017-07-20T07:57:13.171Z,22.60
2017-07-20T07:59:41.273Z,22.60
2017-07-20T08:02:10.094Z,22.70
2017-07-20T08:04:38.141Z,22.70
2017-07-20T08:07:06.987Z,22.80
2017-07-20T08:09:35.075Z,22.80
2017-07-20T08:12:03.143Z,22.90
2017-07-20T08:14:31.230Z,22.90
2017-07-20T08:17:00.083Z,23.10
2017-07-20T08:19:28.126Z,23.00
2017-07-20T08:21:56.199Z,23.20
2017-07-20T08:24:24.290Z,23.40
2017-07-20T08:26:52.369Z,23.50
2017-07-20T08:29:21.206Z,23.40
2017-07-20T08:31:50.040Z,23.60
2017-07-20T08:34:18.089Z,23.50
2017-07-20T08:36:46.199Z,23.60
2017-07-20T08:39:14.273Z,23.80
2017-07-20T08:41:42.317Z,23.90
2017-07-20T08:44:11.170Z,24.10
2017-07-20T08:46:39.238Z,24.10
2017-07-20T08:49:07.309Z,24.20
2017-07-20T08:51:35.360Z,24.20
2017-07-20T08:54:03.422Z,24.20
2017-07-20T08:56:31.507Z,24.20
2017-07-20T08:58:59.579Z,24.00
2017-07-20T09:01:27.634Z,23.80
2017-07-20T09:03:55.712Z,23.80
2017-07-20T09:06:23.839Z,24.00
2017-07-20T09:08:51.879Z,24.00
2017-07-20T09:11:19.927Z,23.80
2017-07-20T09:13:48.008Z,23.60
2017-07-20T09:16:16.063Z,23.60
2017-07-20T09:18:44.158Z,23.80
2017-07-20T09:21:12.220Z,24.20
2017-07-20T09:23:40.301Z,24.50
2017-07-20T09:26:08.382Z,24.80
2017-07-20T09:28:36.466Z,25.40
2017-07-20T09:31:04.538Z,25.70
2017-07-20T09:33:32.623Z,25.90
2017-07-20T09:36:01.503Z,26.40
2017-07-20T09:38:29.596Z,26.40
2017-07-20T09:40:57.658Z,26.20
2017-07-20T09:43:25.791Z,26.00
2017-07-20T09:45:53.851Z,25.60
2017-07-20T09:48:21.939Z,25.40
2017-07-20T09:50:50.774Z,25.80
2017-07-20T09:53:18.859Z,25.80
2017-07-20T09:55:46.918Z,26.00
2017-07-20T09:58:14.994Z,26.30
2017-07-20T10:00:43.102Z,26.20
2017-07-20T10:03:11.166Z,26.10
2017-07-20T10:05:39.245Z,25.70
2017-07-20T10:08:07.316Z,25.40
2017-07-20T10:10:35.391Z,25.50
2017-07-20T10:13:04.252Z,25.20
2017-07-20T10:15:32.323Z,25.20
2017-07-20T10:18:00.411Z,25.40
2017-07-20T10:20:28.475Z,25.60
2017-07-20T10:22:56.540Z,25.80
2017-07-20T10:25:24.622Z,25.90
2017-07-20T10:27:52.701Z,25.80
2017-07-20T10:30:20.777Z,25.90
2017-07-20T10:32:48.847Z,26.30
2017-07-20T10:35:16.944Z,26.60
2017-07-20T10:37:45.035Z,26.20
2017-07-20T10:40:13.109Z,26.00
2017-07-20T10:42:41.214Z,25.80
2017-07-20T10:45:09.269Z,26.00
2017-07-20T10:47:37.325Z,26.20
2017-07-20T10:50:05.420Z,26.20
2017-07-20T10:52:33.514Z,26.10
2017-07-20T10:55:01.571Z,26.00
2017-07-20T10:57:30.427Z,26.20
2017-07-20T10:59:58.496Z,26.20
2017-07-20T11:02:26.650Z,26.30
2017-07-20T11:04:55.030Z,26.60
2017-07-20T11:07:23.063Z,26.50
2017-07-20T11:09:52.045Z,26.10
2017-07-20T11:12:20.141Z,26.00
2017-07-20T11:14:48.972Z,25.80
2017-07-20T11:17:17.036Z,25.90
2017-07-20T11:19:45.135Z,25.80
2017-07-20T11:22:13.235Z,25.80
2017-07-20T11:24:42.103Z,27.00
2017-07-20T11:27:10.155Z,27.00
2017-07-20T11:29:38.244Z,27.60
2017-07-20T11:32:06.318Z,27.70
2017-07-20T11:34:34.369Z,28.00
2017-07-20T11:37:02.470Z,28.30
2017-07-20T11:39:30.525Z,27.90
2017-07-20T11:41:58.601Z,27.70
2017-07-20T11:44:26.707Z,27.80
2017-07-20T11:46:54.800Z,28.30
2017-07-20T11:49:22.858Z,28.70
2017-07-20T11:51:50.941Z,28.80
2017-07-20T11:54:19.035Z,28.70
2017-07-20T11:56:47.915Z,28.90
2017-07-20T11:59:16.013Z,28.70
2017-07-20T12:01:44.086Z,28.40
2017-07-20T12:04:12.140Z,27.90
2017-07-20T12:06:40.237Z,27.20
2017-07-20T12:09:08.283Z,26.40
2017-07-20T12:11:36.365Z,26.20
2017-07-20T12:14:04.422Z,26.10
2017-07-20T12:16:32.478Z,26.20
2017-07-20T12:19:00.559Z,26.50
2017-07-20T12:21:28.619Z,26.90
2017-07-20T12:23:56.698Z,27.30
2017-07-20T12:26:24.784Z,27.30
2017-07-20T12:28:52.843Z,27.10
2017-07-20T12:31:20.934Z,27.20
2017-07-20T12:33:49.006Z,27.40
2017-07-20T12:36:17.062Z,27.60
2017-07-20T12:38:45.135Z,27.70
2017-07-20T12:41:13.203Z,27.60
2017-07-20T12:43:41.274Z,27.40
2017-07-20T12:46:09.328Z,27.20
2017-07-20T12:48:39.026Z,26.90
2017-07-20T12:51:07.591Z,26.80
2017-07-20T12:53:35.641Z,26.80
2017-07-20T12:56:04.511Z,27.00
2017-07-20T12:58:32.570Z,26.90
2017-07-20T13:01:00.638Z,27.40
2017-07-20T13:03:28.687Z,27.70
2017-07-20T13:05:56.763Z,27.90
2017-07-20T13:08:24.831Z,27.90
2017-07-20T13:10:52.902Z,27.80
2017-07-20T13:13:20.983Z,27.80
2017-07-20T13:15:49.072Z,28.00
2017-07-20T13:18:17.155Z,27.90
2017-07-20T13:20:45.974Z,27.70
2017-07-20T13:23:14.041Z,27.70
2017-07-20T13:25:42.899Z,27.60
2017-07-20T13:28:10.954Z,27.50
2017-07-20T13:30:39.027Z,27.60
2017-07-20T13:33:07.109Z,27.50
2017-07-20T13:35:35.188Z,27.50
2017-07-20T13:38:04.025Z,27.40
2017-07-20T13:40:32.108Z,27.30
2017-07-20T13:43:00.190Z,27.50
2017-07-20T13:45:28.244Z,27.50
2017-07-20T13:47:56.327Z,27.60
2017-07-20T13:50:24.416Z,27.50
2017-07-20T13:52:52.487Z,27.50
2017-07-20T13:55:20.566Z,27.50
2017-07-20T13:57:49.362Z,27.20
2017-07-20T14:00:17.419Z,27.40
2017-07-20T14:02:45.491Z,27.40
2017-07-20T14:05:13.575Z,27.60
2017-07-20T14:07:41.652Z,27.70
2017-07-20T14:10:09.703Z,27.70
2017-07-20T14:12:37.755Z,27.80
2017-07-20T14:15:05.858Z,27.70
2017-07-20T14:17:33.907Z,27.70
2017-07-20T14:20:01.984Z,27.70
2017-07-20T14:22:30.050Z,27.60
2017-07-20T14:24:58.130Z,27.60
2017-07-20T14:27:26.205Z,27.40
2017-07-20T14:29:54.276Z,27.20
2017-07-20T14:32:22.331Z,27.40
2017-07-20T14:34:50.455Z,27.60
2017-07-20T14:37:18.487Z,27.60
2017-07-20T14:39:46.543Z,27.50
2017-07-20T14:42:14.634Z,27.40
2017-07-20T14:44:42.749Z,27.30
2017-07-20T14:47:10.794Z,27.20
2017-07-20T14:49:38.847Z,27.30
2017-07-20T14:52:06.937Z,27.30
2017-07-20T14:54:34.996Z,27.40
2017-07-20T14:57:03.050Z,27.60
2017-07-20T14:59:31.158Z,27.60
2017-07-20T15:01:59.271Z,27.50
2017-07-20T15:04:28.588Z,27.20
2017-07-20T15:06:56.648Z,27.20
2017-07-20T15:09:24.746Z,27.40
2017-07-20T15:11:52.806Z,27.40
2017-07-20T15:14:20.869Z,27.60
2017-07-20T15:16:48.952Z,27.70
2017-07-20T15:19:17.076Z,27.90
2017-07-20T15:21:45.131Z,27.70
2017-07-20T15:24:13.184Z,27.60
2017-07-20T15:26:41.274Z,27.50
2017-07-20T15:29:09.331Z,27.40
2017-07-20T15:31:37.388Z,27.40
2017-07-20T15:34:05.475Z,27.30
2017-07-20T15:36:33.539Z,27.30
2017-07-20T15:39:01.599Z,27.20
2017-07-20T15:41:29.681Z,27.30
2017-07-20T15:43:58.522Z,27.50
2017-07-20T15:46:26.598Z,27.50
2017-07-20T15:48:54.701Z,27.60
2017-07-20T15:51:22.762Z,27.70
2017-07-20T15:53:50.806Z,27.60
2017-07-20T15:56:18.887Z,27.40
2017-07-20T15:58:46.985Z,27.20
2017-07-20T16:01:15.058Z,27.00
2017-07-20T16:03:43.195Z,26.90
2017-07-20T16:06:11.303Z,26.90
2017-07-20T16:08:39.346Z,27.10
2017-07-20T16:11:07.442Z,27.10
2017-07-20T16:13:35.527Z,27.10
2017-07-20T16:16:04.359Z,27.40
2017-07-20T16:18:32.430Z,27.30
2017-07-20T16:21:00.498Z,27.40
2017-07-20T16:23:28.608Z,27.50
2017-07-20T16:25:56.678Z,27.40
2017-07-20T16:28:24.759Z,27.20
2017-07-20T16:30:52.848Z,27.10
2017-07-20T16:33:20.889Z,26.90
2017-07-20T16:35:48.949Z,26.80
2017-07-20T16:38:17.008Z,26.90
2017-07-20T16:40:45.080Z,27.00
2017-07-20T16:43:13.158Z,26.90
2017-07-20T16:45:41.220Z,26.80
2017-07-20T16:48:09.287Z,26.60
2017-07-20T16:50:37.351Z,26.50
2017-07-20T16:53:05.427Z,26.40
2017-07-20T16:55:33.498Z,26.40
2017-07-20T16:58:01.576Z,26.30
2017-07-20T17:00:29.650Z,26.20
2017-07-20T17:02:57.720Z,26.10
2017-07-20T17:05:25.800Z,26.10
2017-07-20T17:07:53.830Z,26.00
2017-07-20T17:10:22.646Z,25.90
2017-07-20T17:12:50.731Z,25.90
2017-07-20T17:15:18.811Z,25.90
2017-07-20T17:17:46.870Z,26.00
2017-07-20T17:20:14.924Z,26.00
2017-07-20T17:22:43.006Z,26.00
2017-07-20T17:25:11.062Z,26.00
2017-07-20T17:27:39.110Z,25.80
2017-07-20T17:30:07.954Z,25.60
2017-07-20T17:32:36.042Z,25.60
2017-07-20T17:35:04.107Z,25.70
2017-07-20T17:37:32.166Z,25.70
2017-07-20T17:40:00.237Z,25.80
2017-07-20T17:42:28.302Z,25.80
2017-07-20T17:44:56.379Z,25.70
2017-07-20T17:47:24.458Z,25.60
2017-07-20T17:49:52.532Z,25.60
2017-07-20T17:52:20.583Z,25.60
2017-07-20T17:54:48.670Z,25.70
2017-07-20T17:57:17.478Z,25.70
2017-07-20T17:59:45.547Z,25.60
2017-07-20T18:02:13.620Z,25.60
2017-07-20T18:04:41.683Z,25.60
2017-07-20T18:07:09.839Z,25.50
2017-07-20T18:09:37.928Z,25.40
2017-07-20T18:12:05.991Z,25.50
2017-07-20T18:14:34.062Z,25.50
2017-07-20T18:17:02.124Z,25.50
2017-07-20T18:19:30.226Z,25.40
2017-07-20T18:21:58.273Z,25.30
2017-07-20T18:24:26.338Z,25.30
2017-07-20T18:26:54.428Z,25.20
2017-07-20T18:29:22.501Z,25.20
2017-07-20T18:31:50.579Z,25.20
2017-07-20T18:34:18.645Z,25.20
2017-07-20T18:36:46.703Z,25.20
2017-07-20T18:39:14.786Z,25.30
2017-07-20T18:41:42.830Z,25.30
2017-07-20T18:44:10.889Z,25.40
2017-07-20T18:46:38.972Z,25.40
2017-07-20T18:49:07.047Z,25.40
2017-07-20T18:51:35.069Z,25.30
2017-07-20T18:54:03.912Z,25.20
2017-07-20T18:56:31.975Z,25.10
2017-07-20T18:59:00.093Z,25.10
2017-07-20T19:01:28.148Z,25.10
2017-07-20T19:03:56.203Z,25.00
2017-07-20T19:06:24.274Z,25.10
2017-07-20T19:08:52.355Z,25.10
2017-07-20T19:11:20.402Z,25.20
2017-07-20T19:13:48.463Z,25.20
2017-07-20T19:16:16.542Z,25.20
2017-07-20T19:18:44.615Z,25.10
2017-07-20T19:21:12.716Z,24.60
2017-07-20T19:23:40.897Z,24.00
2017-07-20T19:26:08.949Z,23.30
2017-07-20T19:28:37.031Z,22.90
2017-07-20T19:31:05.121Z,22.50
2017-07-20T19:33:33.173Z,22.20
2017-07-20T19:36:01.248Z,21.90
2017-07-20T19:38:29.340Z,21.70
2017-07-20T19:40:58.180Z,21.40
2017-07-20T19:43:26.287Z,21.40
2017-07-20T19:45:55.125Z,21.50
2017-07-20T19:48:23.203Z,21.40
2017-07-20T19:50:51.258Z,21.60
2017-07-20T19:53:19.335Z,21.60
2017-07-20T19:55:47.417Z,21.80
2017-07-20T19:58:15.483Z,21.70
2017-07-20T20:00:43.569Z,21.50
2017-07-20T20:03:11.815Z,21.50
2017-07-20T20:05:39.907Z,21.40
2017-07-20T20:08:07.966Z,21.40
2017-07-20T20:10:36.048Z,21.40
2017-07-20T20:13:04.118Z,21.40
2017-07-20T20:15:32.184Z,21.40
2017-07-20T20:18:00.338Z,21.60
2017-07-20T20:20:29.146Z,21.90
2017-07-20T20:22:57.230Z,21.80
2017-07-20T20:25:25.350Z,22.00
2017-07-20T20:27:54.178Z,22.30
2017-07-20T20:30:22.242Z,22.30
2017-07-20T20:32:50.408Z,22.40
2017-07-20T20:35:19.235Z,22.10
2017-07-20T20:37:47.336Z,22.00
2017-07-20T20:40:15.392Z,22.10
2017-07-20T20:42:43.474Z,22.10
2017-07-20T20:45:11.552Z,22.10
2017-07-20T20:47:39.607Z,22.10
2017-07-20T20:50:07.698Z,22.10
2017-07-20T20:52:35.766Z,21.90
2017-07-20T20:55:03.839Z,22.00
2017-07-20T20:57:31.920Z,22.00
2017-07-20T20:59:59.999Z,21.90
2017-07-20T21:02:28.086Z,22.00
2017-07-20T21:04:56.139Z,22.10
2017-07-20T21:07:24.211Z,22.30
2017-07-20T21:09:52.345Z,22.30
2017-07-20T21:12:21.168Z,22.30
2017-07-20T21:14:49.214Z,22.20
2017-07-20T21:17:17.295Z,22.10
2017-07-20T21:19:45.356Z,22.00
2017-07-20T21:22:13.419Z,22.00
2017-07-20T21:24:41.490Z,21.90
2017-07-20T21:27:09.583Z,21.90
2017-07-20T21:29:37.659Z,21.90
2017-07-20T21:32:05.733Z,21.90
2017-07-20T21:34:33.787Z,22.00
2017-07-20T21:37:01.843Z,22.00
2017-07-20T21:39:29.939Z,22.00
2017-07-20T21:41:57.986Z,22.10
2017-07-20T21:44:26.068Z,22.10
2017-07-20T21:46:54.132Z,22.20
2017-07-20T21:49:22.215Z,22.30
2017-07-20T21:51:50.278Z,22.30
2017-07-20T21:54:18.350Z,22.40
2017-07-20T21:56:46.392Z,22.40
2017-07-20T21:59:15.244Z,22.30
2017-07-20T22:01:43.324Z,22.30
2017-07-20T22:04:11.379Z,22.20
2017-07-20T22:06:39.472Z,22.20
2017-07-20T22:09:07.535Z,22.10
2017-07-20T22:11:35.587Z,22.00
2017-07-20T22:14:03.658Z,21.80
2017-07-20T22:16:32.530Z,21.50
2017-07-20T22:19:00.612Z,21.30
2017-07-20T22:21:28.704Z,21.30
2017-07-20T22:23:56.887Z,21.20
2017-07-20T22:26:24.947Z,21.30
2017-07-20T22:28:53.027Z,21.30
2017-07-20T22:31:21.083Z,21.30
2017-07-20T22:33:49.166Z,21.10
2017-07-20T22:36:17.237Z,21.10
2017-07-20T22:38:45.313Z,21.10
2017-07-20T22:41:13.380Z,20.90
2017-07-20T22:43:41.454Z,20.80
2017-07-20T22:46:09.531Z,20.70
2017-07-20T22:48:37.710Z,20.70
2017-07-20T22:51:05.770Z,20.70
2017-07-20T22:53:33.852Z,20.70
2017-07-20T22:56:01.914Z,20.80
2017-07-20T22:58:29.995Z,20.90
2017-07-20T23:00:58.067Z,21.00
2017-07-20T23:03:26.229Z,21.10
2017-07-20T23:05:55.037Z,21.10
2017-07-20T23:08:23.091Z,21.00
2017-07-20T23:10:51.157Z,21.20
2017-07-20T23:13:19.250Z,21.20
2017-07-20T23:15:47.303Z,21.20
2017-07-20T23:18:15.355Z,21.30
2017-07-20T23:20:43.434Z,21.20
2017-07-20T23:23:11.486Z,21.00
2017-07-20T23:25:40.324Z,21.00
2017-07-20T23:28:08.393Z,20.90
2017-07-20T23:30:36.544Z,21.10
2017-07-20T23:33:05.359Z,21.10
2017-07-20T23:35:33.424Z,21.00
2017-07-20T23:38:01.490Z,21.00
2017-07-20T23:40:29.547Z,21.00
2017-07-20T23:42:57.628Z,21.10
2017-07-20T23:45:25.675Z,21.20
2017-07-20T23:47:53.741Z,21.30
2017-07-20T23:50:21.823Z,21.30
2017-07-20T23:52:49.886Z,21.30
2017-07-20T23:55:17.946Z,21.30
2017-07-20T23:57:46.041Z,21.30
